sensor_id;sensor_type;location;lat;lon;timestamp;temperature;humidity
6627;DHT22;3349;49.830;8.748;2022-08-05T00:01:13;26.10;48.90
6627;DHT22;3349;49.830;8.748;2022-08-05T00:03:40;26.10;49.10
6627;DHT22;3349;49.830;8.748;2022-08-05T00:06:08;26.20;49.00
6627;DHT22;3349;49.830;8.748;2022-08-05T00:08:36;26.20;48.80
6627;DHT22;3349;49.830;8.748;2022-08-05T00:11:04;26.20;48.90
6627;DHT22;3349;49.830;8.748;2022-08-05T00:13:32;26.20;48.90
6627;DHT22;3349;49.830;8.748;2022-08-05T00:15:59;26.20;48.90
6627;DHT22;3349;49.830;8.748;2022-08-05T00:18:26;26.10;49.10
6627;DHT22;3349;49.830;8.748;2022-08-05T00:20:53;26.20;49.00
6627;DHT22;3349;49.830;8.748;2022-08-05T00:23:23;26.00;49.50
6627;DHT22;3349;49.830;8.748;2022-08-05T00:25:50;26.00;50.00
6627;DHT22;3349;49.830;8.748;2022-08-05T00:28:17;26.00;50.20
6627;DHT22;3349;49.830;8.748;2022-08-05T00:30:44;26.00;50.60
6627;DHT22;3349;49.830;8.748;2022-08-05T00:33:11;25.90;51.00
6627;DHT22;3349;49.830;8.748;2022-08-05T00:35:38;25.80;51.60
6627;DHT22;3349;49.830;8.748;2022-08-05T00:38:05;25.70;52.70
6627;DHT22;3349;49.830;8.748;2022-08-05T00:40:33;25.70;53.30
6627;DHT22;3349;49.830;8.748;2022-08-05T00:43:01;25.60;54.40
6627;DHT22;3349;49.830;8.748;2022-08-05T00:45:28;25.50;55.50
6627;DHT22;3349;49.830;8.748;2022-08-05T00:47:55;25.50;56.10
6627;DHT22;3349;49.830;8.748;2022-08-05T00:50:22;25.40;56.60
6627;DHT22;3349;49.830;8.748;2022-08-05T00:52:49;25.40;56.60
6627;DHT22;3349;49.830;8.748;2022-08-05T00:55:16;25.30;57.60
6627;DHT22;3349;49.830;8.748;2022-08-05T00:57:44;25.30;57.90
6627;DHT22;3349;49.830;8.748;2022-08-05T01:00:12;25.30;58.40
6627;DHT22;3349;49.830;8.748;2022-08-05T01:02:38;25.20;58.40
6627;DHT22;3349;49.830;8.748;2022-08-05T01:05:06;25.20;58.80
6627;DHT22;3349;49.830;8.748;2022-08-05T01:07:33;25.10;58.70
6627;DHT22;3349;49.830;8.748;2022-08-05T01:10:03;25.10;59.20
6627;DHT22;3349;49.830;8.748;2022-08-05T01:16:22;25.10;59.30
6627;DHT22;3349;49.830;8.748;2022-08-05T01:18:51;25.10;59.20
6627;DHT22;3349;49.830;8.748;2022-08-05T01:21:43;25.10;59.50
6627;DHT22;3349;49.830;8.748;2022-08-05T01:24:27;25.20;58.70
6627;DHT22;3349;49.830;8.748;2022-08-05T01:27:05;25.20;58.50
6627;DHT22;3349;49.830;8.748;2022-08-05T01:29:39;25.20;58.30
6627;DHT22;3349;49.830;8.748;2022-08-05T01:32:08;25.20;58.20
6627;DHT22;3349;49.830;8.748;2022-08-05T01:34:37;25.30;58.10
6627;DHT22;3349;49.830;8.748;2022-08-05T01:37:13;25.30;58.10
6627;DHT22;3349;49.830;8.748;2022-08-05T01:39:43;25.30;58.10
6627;DHT22;3349;49.830;8.748;2022-08-05T01:42:16;25.20;58.00
6627;DHT22;3349;49.830;8.748;2022-08-05T01:44:47;25.20;58.10
6627;DHT22;3349;49.830;8.748;2022-08-05T01:47:17;25.20;58.10
6627;DHT22;3349;49.830;8.748;2022-08-05T01:49:45;25.10;58.20
6627;DHT22;3349;49.830;8.748;2022-08-05T01:52:16;25.10;58.80
6627;DHT22;3349;49.830;8.748;2022-08-05T01:54:46;25.10;58.90
6627;DHT22;3349;49.830;8.748;2022-08-05T01:57:18;25.10;59.10
6627;DHT22;3349;49.830;8.748;2022-08-05T01:59:48;25.00;59.60
6627;DHT22;3349;49.830;8.748;2022-08-05T02:02:18;25.00;59.40
6627;DHT22;3349;49.830;8.748;2022-08-05T02:04:47;25.00;59.10
6627;DHT22;3349;49.830;8.748;2022-08-05T02:07:15;24.90;59.20
6627;DHT22;3349;49.830;8.748;2022-08-05T02:09:42;24.90;59.20
6627;DHT22;3349;49.830;8.748;2022-08-05T02:12:17;25.00;58.80
6627;DHT22;3349;49.830;8.748;2022-08-05T02:14:52;25.00;58.50
6627;DHT22;3349;49.830;8.748;2022-08-05T02:17:28;25.00;58.80
6627;DHT22;3349;49.830;8.748;2022-08-05T02:20:00;25.00;58.90
6627;DHT22;3349;49.830;8.748;2022-08-05T02:22:31;24.90;59.30
6627;DHT22;3349;49.830;8.748;2022-08-05T02:25:02;24.90;59.70
6627;DHT22;3349;49.830;8.748;2022-08-05T02:27:33;24.90;59.90
6627;DHT22;3349;49.830;8.748;2022-08-05T02:30:03;24.90;59.90
6627;DHT22;3349;49.830;8.748;2022-08-05T02:32:33;24.90;60.30
6627;DHT22;3349;49.830;8.748;2022-08-05T02:35:03;24.80;60.60
6627;DHT22;3349;49.830;8.748;2022-08-05T02:37:31;24.80;61.10
6627;DHT22;3349;49.830;8.748;2022-08-05T02:40:00;24.80;61.10
6627;DHT22;3349;49.830;8.748;2022-08-05T02:42:28;24.70;61.00
6627;DHT22;3349;49.830;8.748;2022-08-05T02:44:56;24.80;61.10
6627;DHT22;3349;49.830;8.748;2022-08-05T02:47:26;24.70;62.20
6627;DHT22;3349;49.830;8.748;2022-08-05T02:49:55;24.70;62.50
6627;DHT22;3349;49.830;8.748;2022-08-05T02:52:23;24.70;63.30
6627;DHT22;3349;49.830;8.748;2022-08-05T02:54:51;24.60;63.60
6627;DHT22;3349;49.830;8.748;2022-08-05T02:57:19;24.60;63.20
6627;DHT22;3349;49.830;8.748;2022-08-05T02:59:48;24.60;67.50
6627;DHT22;3349;49.830;8.748;2022-08-05T03:02:18;24.50;72.60
6627;DHT22;3349;49.830;8.748;2022-08-05T03:04:47;24.30;80.80
6627;DHT22;3349;49.830;8.748;2022-08-05T03:07:17;24.10;85.90
6627;DHT22;3349;49.830;8.748;2022-08-05T03:09:44;24.00;92.60
6627;DHT22;3349;49.830;8.748;2022-08-05T03:12:29;23.80;92.30
6627;DHT22;3349;49.830;8.748;2022-08-05T03:14:56;23.60;92.80
6627;DHT22;3349;49.830;8.748;2022-08-05T03:17:23;23.50;94.90
6627;DHT22;3349;49.830;8.748;2022-08-05T03:19:51;23.40;96.60
6627;DHT22;3349;49.830;8.748;2022-08-05T03:22:18;23.30;97.80
6627;DHT22;3349;49.830;8.748;2022-08-05T03:24:46;23.30;99.60
6627;DHT22;3349;49.830;8.748;2022-08-05T03:27:13;23.20;99.00
6627;DHT22;3349;49.830;8.748;2022-08-05T03:29:40;23.30;99.90
6627;DHT22;3349;49.830;8.748;2022-08-05T03:32:08;23.30;99.90
6627;DHT22;3349;49.830;8.748;2022-08-05T03:34:35;23.30;99.90
6627;DHT22;3349;49.830;8.748;2022-08-05T03:37:04;23.30;99.90
6627;DHT22;3349;49.830;8.748;2022-08-05T03:39:31;23.20;99.90
6627;DHT22;3349;49.830;8.748;2022-08-05T03:41:58;23.20;99.90
6627;DHT22;3349;49.830;8.748;2022-08-05T03:44:25;23.20;99.90
6627;DHT22;3349;49.830;8.748;2022-08-05T03:46:52;23.10;99.90
6627;DHT22;3349;49.830;8.748;2022-08-05T03:49:18;23.30;99.90
6627;DHT22;3349;49.830;8.748;2022-08-05T03:51:53;23.20;99.90
6627;DHT22;3349;49.830;8.748;2022-08-05T03:54:29;23.20;97.40
6627;DHT22;3349;49.830;8.748;2022-08-05T03:56:57;23.20;99.80
6627;DHT22;3349;49.830;8.748;2022-08-05T03:59:29;23.10;95.50
6627;DHT22;3349;49.830;8.748;2022-08-05T04:01:57;23.10;88.70
6627;DHT22;3349;49.830;8.748;2022-08-05T04:04:27;23.00;91.50
6627;DHT22;3349;49.830;8.748;2022-08-05T04:06:55;22.80;90.60
6627;DHT22;3349;49.830;8.748;2022-08-05T04:09:23;22.80;92.30
6627;DHT22;3349;49.830;8.748;2022-08-05T04:11:50;22.60;91.90
6627;DHT22;3349;49.830;8.748;2022-08-05T04:14:18;22.60;91.60
6627;DHT22;3349;49.830;8.748;2022-08-05T04:16:44;22.60;94.20
6627;DHT22;3349;49.830;8.748;2022-08-05T04:19:11;22.50;93.50
6627;DHT22;3349;49.830;8.748;2022-08-05T04:21:38;22.50;93.00
6627;DHT22;3349;49.830;8.748;2022-08-05T04:24:05;22.40;93.70
6627;DHT22;3349;49.830;8.748;2022-08-05T04:26:34;22.40;93.90
6627;DHT22;3349;49.830;8.748;2022-08-05T04:29:01;22.40;95.30
6627;DHT22;3349;49.830;8.748;2022-08-05T04:31:27;22.30;97.10
6627;DHT22;3349;49.830;8.748;2022-08-05T04:33:54;22.30;97.80
6627;DHT22;3349;49.830;8.748;2022-08-05T04:36:21;22.20;99.90
6627;DHT22;3349;49.830;8.748;2022-08-05T04:38:48;22.10;99.90
6627;DHT22;3349;49.830;8.748;2022-08-05T04:41:16;22.00;99.90
6627;DHT22;3349;49.830;8.748;2022-08-05T04:43:44;22.00;99.20
6627;DHT22;3349;49.830;8.748;2022-08-05T04:46:11;21.90;99.90
6627;DHT22;3349;49.830;8.748;2022-08-05T04:48:38;21.90;99.90
6627;DHT22;3349;49.830;8.748;2022-08-05T04:51:06;21.90;99.90
6627;DHT22;3349;49.830;8.748;2022-08-05T04:53:34;22.00;99.90
6627;DHT22;3349;49.830;8.748;2022-08-05T04:56:01;21.90;99.90
6627;DHT22;3349;49.830;8.748;2022-08-05T04:58:28;22.00;99.90
6627;DHT22;3349;49.830;8.748;2022-08-05T05:00:56;22.00;99.90
6627;DHT22;3349;49.830;8.748;2022-08-05T05:03:23;22.00;99.90
6627;DHT22;3349;49.830;8.748;2022-08-05T05:05:50;22.00;99.90
6627;DHT22;3349;49.830;8.748;2022-08-05T05:08:16;22.00;99.90
6627;DHT22;3349;49.830;8.748;2022-08-05T05:10:45;22.00;99.90
6627;DHT22;3349;49.830;8.748;2022-08-05T05:13:13;22.00;99.90
6627;DHT22;3349;49.830;8.748;2022-08-05T05:15:40;22.00;99.90
6627;DHT22;3349;49.830;8.748;2022-08-05T05:18:11;22.00;99.90
6627;DHT22;3349;49.830;8.748;2022-08-05T05:20:38;21.90;99.90
6627;DHT22;3349;49.830;8.748;2022-08-05T05:23:04;21.90;99.90
6627;DHT22;3349;49.830;8.748;2022-08-05T05:25:31;21.80;99.90
6627;DHT22;3349;49.830;8.748;2022-08-05T05:27:58;21.90;99.90
6627;DHT22;3349;49.830;8.748;2022-08-05T05:30:25;21.90;99.90
6627;DHT22;3349;49.830;8.748;2022-08-05T05:32:52;22.00;99.90
6627;DHT22;3349;49.830;8.748;2022-08-05T05:35:20;22.00;99.90
6627;DHT22;3349;49.830;8.748;2022-08-05T05:37:48;22.10;99.90
6627;DHT22;3349;49.830;8.748;2022-08-05T05:40:16;22.20;99.90
6627;DHT22;3349;49.830;8.748;2022-08-05T05:42:44;22.30;99.90
6627;DHT22;3349;49.830;8.748;2022-08-05T05:45:11;22.40;99.90
6627;DHT22;3349;49.830;8.748;2022-08-05T05:47:38;22.50;99.90
6627;DHT22;3349;49.830;8.748;2022-08-05T05:50:06;22.60;99.30
6627;DHT22;3349;49.830;8.748;2022-08-05T05:52:35;22.60;99.20
6627;DHT22;3349;49.830;8.748;2022-08-05T05:55:04;22.60;98.30
6627;DHT22;3349;49.830;8.748;2022-08-05T05:57:33;22.70;98.10
6627;DHT22;3349;49.830;8.748;2022-08-05T06:00:00;22.80;96.00
6627;DHT22;3349;49.830;8.748;2022-08-05T06:02:27;22.70;97.80
6627;DHT22;3349;49.830;8.748;2022-08-05T06:04:53;22.70;96.70
6627;DHT22;3349;49.830;8.748;2022-08-05T06:07:20;22.80;97.00
6627;DHT22;3349;49.830;8.748;2022-08-05T06:09:48;22.80;97.30
6627;DHT22;3349;49.830;8.748;2022-08-05T06:12:15;22.80;96.50
6627;DHT22;3349;49.830;8.748;2022-08-05T06:14:42;22.90;95.20
6627;DHT22;3349;49.830;8.748;2022-08-05T06:17:09;23.00;94.70
6627;DHT22;3349;49.830;8.748;2022-08-05T06:19:36;23.20;93.30
6627;DHT22;3349;49.830;8.748;2022-08-05T06:22:03;23.30;93.30
6627;DHT22;3349;49.830;8.748;2022-08-05T06:24:30;23.40;93.20
6627;DHT22;3349;49.830;8.748;2022-08-05T06:26:58;23.40;92.70
6627;DHT22;3349;49.830;8.748;2022-08-05T06:29:25;23.40;91.20
6627;DHT22;3349;49.830;8.748;2022-08-05T06:31:52;23.50;91.20
6627;DHT22;3349;49.830;8.748;2022-08-05T06:34:19;23.60;91.70
6627;DHT22;3349;49.830;8.748;2022-08-05T06:36:46;23.90;91.10
6627;DHT22;3349;49.830;8.748;2022-08-05T06:39:12;24.10;90.10
6627;DHT22;3349;49.830;8.748;2022-08-05T06:41:39;24.30;88.50
6627;DHT22;3349;49.830;8.748;2022-08-05T06:44:07;24.30;85.00
6627;DHT22;3349;49.830;8.748;2022-08-05T06:46:34;24.20;79.40
6627;DHT22;3349;49.830;8.748;2022-08-05T06:49:01;24.20;82.20
6627;DHT22;3349;49.830;8.748;2022-08-05T06:51:28;24.50;82.70
6627;DHT22;3349;49.830;8.748;2022-08-05T06:53:56;24.70;82.00
6627;DHT22;3349;49.830;8.748;2022-08-05T06:56:23;24.80;80.00
6627;DHT22;3349;49.830;8.748;2022-08-05T06:58:50;25.10;78.50
6627;DHT22;3349;49.830;8.748;2022-08-05T07:01:18;25.20;74.60
6627;DHT22;3349;49.830;8.748;2022-08-05T07:03:44;25.30;73.00
6627;DHT22;3349;49.830;8.748;2022-08-05T07:06:11;25.50;71.10
6627;DHT22;3349;49.830;8.748;2022-08-05T07:08:38;25.40;67.60
6627;DHT22;3349;49.830;8.748;2022-08-05T07:11:05;25.60;66.60
6627;DHT22;3349;49.830;8.748;2022-08-05T07:13:33;25.90;65.30
6627;DHT22;3349;49.830;8.748;2022-08-05T07:16:18;26.10;64.90
6627;DHT22;3349;49.830;8.748;2022-08-05T07:19:03;26.40;63.70
6627;DHT22;3349;49.830;8.748;2022-08-05T07:21:29;26.70;62.50
6627;DHT22;3349;49.830;8.748;2022-08-05T07:23:57;26.60;62.50
6627;DHT22;3349;49.830;8.748;2022-08-05T07:26:23;26.30;64.40
6627;DHT22;3349;49.830;8.748;2022-08-05T07:28:50;25.80;68.20
6627;DHT22;3349;49.830;8.748;2022-08-05T07:31:18;25.30;68.50
6627;DHT22;3349;49.830;8.748;2022-08-05T07:33:45;24.80;70.10
6627;DHT22;3349;49.830;8.748;2022-08-05T07:36:11;24.50;75.80
6627;DHT22;3349;49.830;8.748;2022-08-05T07:38:39;24.40;75.00
6627;DHT22;3349;49.830;8.748;2022-08-05T07:41:07;24.20;78.10
6627;DHT22;3349;49.830;8.748;2022-08-05T07:43:34;24.00;82.10
6627;DHT22;3349;49.830;8.748;2022-08-05T07:46:02;23.90;79.10
6627;DHT22;3349;49.830;8.748;2022-08-05T07:48:30;23.70;87.30
6627;DHT22;3349;49.830;8.748;2022-08-05T07:50:57;23.30;91.00
6627;DHT22;3349;49.830;8.748;2022-08-05T07:53:23;22.90;94.70
6627;DHT22;3349;49.830;8.748;2022-08-05T07:55:50;22.70;95.60
6627;DHT22;3349;49.830;8.748;2022-08-05T07:58:17;22.50;98.80
6627;DHT22;3349;49.830;8.748;2022-08-05T08:00:45;22.20;99.30
6627;DHT22;3349;49.830;8.748;2022-08-05T08:03:12;22.00;99.90
6627;DHT22;3349;49.830;8.748;2022-08-05T08:05:41;21.90;99.90
6627;DHT22;3349;49.830;8.748;2022-08-05T08:08:09;21.80;99.90
6627;DHT22;3349;49.830;8.748;2022-08-05T08:10:36;21.70;99.90
6627;DHT22;3349;49.830;8.748;2022-08-05T08:13:02;21.80;99.90
6627;DHT22;3349;49.830;8.748;2022-08-05T08:15:30;21.70;99.40
6627;DHT22;3349;49.830;8.748;2022-08-05T08:17:57;21.70;99.30
6627;DHT22;3349;49.830;8.748;2022-08-05T08:20:25;21.70;99.90
6627;DHT22;3349;49.830;8.748;2022-08-05T08:22:54;21.70;99.90
6627;DHT22;3349;49.830;8.748;2022-08-05T08:25:21;21.60;99.90
6627;DHT22;3349;49.830;8.748;2022-08-05T08:27:48;21.60;99.90
6627;DHT22;3349;49.830;8.748;2022-08-05T08:30:15;21.50;99.90
6627;DHT22;3349;49.830;8.748;2022-08-05T08:32:42;21.60;99.90
6627;DHT22;3349;49.830;8.748;2022-08-05T08:35:09;21.60;99.90
6627;DHT22;3349;49.830;8.748;2022-08-05T08:37:36;21.70;99.90
6627;DHT22;3349;49.830;8.748;2022-08-05T08:40:05;21.80;99.90
6627;DHT22;3349;49.830;8.748;2022-08-05T08:42:32;22.00;99.90
6627;DHT22;3349;49.830;8.748;2022-08-05T08:44:59;22.10;99.90
6627;DHT22;3349;49.830;8.748;2022-08-05T08:47:27;22.10;99.90
6627;DHT22;3349;49.830;8.748;2022-08-05T08:49:55;22.20;96.80
6627;DHT22;3349;49.830;8.748;2022-08-05T08:52:24;22.30;94.80
6627;DHT22;3349;49.830;8.748;2022-08-05T08:54:53;22.50;86.70
6627;DHT22;3349;49.830;8.748;2022-08-05T08:57:22;22.70;88.50
6627;DHT22;3349;49.830;8.748;2022-08-05T08:59:50;22.60;90.50
6627;DHT22;3349;49.830;8.748;2022-08-05T09:02:19;22.60;90.40
6627;DHT22;3349;49.830;8.748;2022-08-05T09:04:46;22.60;89.30
6627;DHT22;3349;49.830;8.748;2022-08-05T09:07:13;22.60;88.20
6627;DHT22;3349;49.830;8.748;2022-08-05T09:09:41;22.60;90.00
6627;DHT22;3349;49.830;8.748;2022-08-05T09:12:09;22.60;86.00
6627;DHT22;3349;49.830;8.748;2022-08-05T09:14:37;22.70;82.40
6627;DHT22;3349;49.830;8.748;2022-08-05T09:17:06;22.90;81.10
6627;DHT22;3349;49.830;8.748;2022-08-05T09:19:33;23.00;81.40
6627;DHT22;3349;49.830;8.748;2022-08-05T09:22:00;23.10;80.00
6627;DHT22;3349;49.830;8.748;2022-08-05T09:24:27;23.30;79.80
6627;DHT22;3349;49.830;8.748;2022-08-05T09:26:56;23.50;77.10
6627;DHT22;3349;49.830;8.748;2022-08-05T09:29:38;23.70;79.20
6627;DHT22;3349;49.830;8.748;2022-08-05T09:32:08;23.90;77.20
6627;DHT22;3349;49.830;8.748;2022-08-05T09:34:49;23.90;76.50
6627;DHT22;3349;49.830;8.748;2022-08-05T09:37:17;24.20;73.70
6627;DHT22;3349;49.830;8.748;2022-08-05T09:39:44;24.50;74.40
6627;DHT22;3349;49.830;8.748;2022-08-05T09:42:12;24.70;74.20
6627;DHT22;3349;49.830;8.748;2022-08-05T09:44:42;25.00;73.20
6627;DHT22;3349;49.830;8.748;2022-08-05T09:47:12;25.50;69.50
6627;DHT22;3349;49.830;8.748;2022-08-05T09:49:43;26.10;64.60
6627;DHT22;3349;49.830;8.748;2022-08-05T09:52:22;26.00;65.90
6627;DHT22;3349;49.830;8.748;2022-08-05T09:54:58;26.00;66.40
6627;DHT22;3349;49.830;8.748;2022-08-05T09:57:33;26.00;64.70
6627;DHT22;3349;49.830;8.748;2022-08-05T10:00:06;25.90;64.50
6627;DHT22;3349;49.830;8.748;2022-08-05T10:02:35;25.90;62.90
6627;DHT22;3349;49.830;8.748;2022-08-05T10:05:07;25.90;61.60
6627;DHT22;3349;49.830;8.748;2022-08-05T10:07:46;26.00;59.90
6627;DHT22;3349;49.830;8.748;2022-08-05T10:10:14;26.00;60.80
6627;DHT22;3349;49.830;8.748;2022-08-05T10:12:43;26.00;59.30
6627;DHT22;3349;49.830;8.748;2022-08-05T10:15:20;26.20;57.80
6627;DHT22;3349;49.830;8.748;2022-08-05T10:18:07;25.90;58.10
6627;DHT22;3349;49.830;8.748;2022-08-05T10:20:36;26.10;58.20
6627;DHT22;3349;49.830;8.748;2022-08-05T10:23:03;26.10;58.30
6627;DHT22;3349;49.830;8.748;2022-08-05T10:25:30;26.30;58.20
6627;DHT22;3349;49.830;8.748;2022-08-05T10:27:57;26.70;57.30
6627;DHT22;3349;49.830;8.748;2022-08-05T10:30:26;27.20;55.20
6627;DHT22;3349;49.830;8.748;2022-08-05T10:32:54;28.00;54.00
6627;DHT22;3349;49.830;8.748;2022-08-05T10:35:22;29.60;51.30
6627;DHT22;3349;49.830;8.748;2022-08-05T10:37:50;30.60;47.70
6627;DHT22;3349;49.830;8.748;2022-08-05T10:40:27;31.60;43.80
6627;DHT22;3349;49.830;8.748;2022-08-05T10:43:00;32.60;40.50
6627;DHT22;3349;49.830;8.748;2022-08-05T10:45:30;32.50;40.30
6627;DHT22;3349;49.830;8.748;2022-08-05T10:47:57;31.50;42.00
6627;DHT22;3349;49.830;8.748;2022-08-05T10:50:24;30.70;43.10
6627;DHT22;3349;49.830;8.748;2022-08-05T10:52:51;30.30;44.30
6627;DHT22;3349;49.830;8.748;2022-08-05T10:55:22;30.70;43.70
6627;DHT22;3349;49.830;8.748;2022-08-05T10:58:07;30.30;43.30
6627;DHT22;3349;49.830;8.748;2022-08-05T11:00:36;29.70;45.10
6627;DHT22;3349;49.830;8.748;2022-08-05T11:03:10;28.80;46.80
6627;DHT22;3349;49.830;8.748;2022-08-05T11:05:39;28.60;47.90
6627;DHT22;3349;49.830;8.748;2022-08-05T11:08:07;29.00;47.80
6627;DHT22;3349;49.830;8.748;2022-08-05T11:10:35;29.70;46.60
6627;DHT22;3349;49.830;8.748;2022-08-05T11:13:03;30.40;44.10
6627;DHT22;3349;49.830;8.748;2022-08-05T11:15:31;30.40;43.60
6627;DHT22;3349;49.830;8.748;2022-08-05T11:18:24;29.90;44.70
6627;DHT22;3349;49.830;8.748;2022-08-05T11:20:52;28.90;46.20
6627;DHT22;3349;49.830;8.748;2022-08-05T11:23:33;28.50;47.40
6627;DHT22;3349;49.830;8.748;2022-08-05T11:26:05;27.60;49.50
6627;DHT22;3349;49.830;8.748;2022-08-05T11:28:40;27.20;50.80
6627;DHT22;3349;49.830;8.748;2022-08-05T11:31:22;27.00;51.50
6627;DHT22;3349;49.830;8.748;2022-08-05T11:33:55;27.20;50.30
6627;DHT22;3349;49.830;8.748;2022-08-05T11:39:46;28.50;48.20
6627;DHT22;3349;49.830;8.748;2022-08-05T11:42:14;30.20;44.20
6627;DHT22;3349;49.830;8.748;2022-08-05T11:44:42;30.40;42.80
6627;DHT22;3349;49.830;8.748;2022-08-05T11:47:09;31.40;41.90
6627;DHT22;3349;49.830;8.748;2022-08-05T11:49:38;31.60;39.90
6627;DHT22;3349;49.830;8.748;2022-08-05T11:52:05;31.40;40.20
6627;DHT22;3349;49.830;8.748;2022-08-05T11:54:32;31.00;39.50
6627;DHT22;3349;49.830;8.748;2022-08-05T11:57:02;30.70;40.90
6627;DHT22;3349;49.830;8.748;2022-08-05T11:59:30;31.10;40.50
6627;DHT22;3349;49.830;8.748;2022-08-05T12:02:00;31.20;39.70
6627;DHT22;3349;49.830;8.748;2022-08-05T12:04:35;31.60;38.60
6627;DHT22;3349;49.830;8.748;2022-08-05T12:07:05;31.40;38.90
6627;DHT22;3349;49.830;8.748;2022-08-05T12:09:35;31.90;39.00
6627;DHT22;3349;49.830;8.748;2022-08-05T12:12:03;32.50;37.40
6627;DHT22;3349;49.830;8.748;2022-08-05T12:14:35;32.60;37.50
6627;DHT22;3349;49.830;8.748;2022-08-05T12:17:06;32.70;36.90
6627;DHT22;3349;49.830;8.748;2022-08-05T12:19:40;31.70;38.20
6627;DHT22;3349;49.830;8.748;2022-08-05T12:22:08;31.50;38.90
6627;DHT22;3349;49.830;8.748;2022-08-05T12:24:39;30.90;39.40
6627;DHT22;3349;49.830;8.748;2022-08-05T12:27:07;30.70;39.90
6627;DHT22;3349;49.830;8.748;2022-08-05T12:29:34;30.90;39.80
6627;DHT22;3349;49.830;8.748;2022-08-05T12:32:03;31.10;39.50
6627;DHT22;3349;49.830;8.748;2022-08-05T12:34:33;30.90;40.10
6627;DHT22;3349;49.830;8.748;2022-08-05T12:37:05;31.10;40.40
6627;DHT22;3349;49.830;8.748;2022-08-05T12:39:37;31.10;40.00
6627;DHT22;3349;49.830;8.748;2022-08-05T12:42:09;31.60;39.50
6627;DHT22;3349;49.830;8.748;2022-08-05T12:44:36;31.20;39.60
6627;DHT22;3349;49.830;8.748;2022-08-05T12:47:04;31.30;39.30
6627;DHT22;3349;49.830;8.748;2022-08-05T12:49:42;30.90;39.80
6627;DHT22;3349;49.830;8.748;2022-08-05T12:52:14;30.70;40.30
6627;DHT22;3349;49.830;8.748;2022-08-05T12:54:43;30.50;40.60
6627;DHT22;3349;49.830;8.748;2022-08-05T12:57:11;30.70;41.10
6627;DHT22;3349;49.830;8.748;2022-08-05T12:59:46;30.40;40.50
6627;DHT22;3349;49.830;8.748;2022-08-05T13:02:19;30.00;41.70
6627;DHT22;3349;49.830;8.748;2022-08-05T13:04:47;29.70;42.50
6627;DHT22;3349;49.830;8.748;2022-08-05T13:07:16;29.60;42.80
6627;DHT22;3349;49.830;8.748;2022-08-05T13:09:49;29.60;43.00
6627;DHT22;3349;49.830;8.748;2022-08-05T13:12:18;29.60;43.10
6627;DHT22;3349;49.830;8.748;2022-08-05T13:14:46;29.40;43.50
6627;DHT22;3349;49.830;8.748;2022-08-05T13:17:17;29.70;44.10
6627;DHT22;3349;49.830;8.748;2022-08-05T13:19:57;30.00;42.70
6627;DHT22;3349;49.830;8.748;2022-08-05T13:22:24;29.90;42.50
6627;DHT22;3349;49.830;8.748;2022-08-05T13:24:52;29.80;43.40
6627;DHT22;3349;49.830;8.748;2022-08-05T13:27:24;30.00;43.50
6627;DHT22;3349;49.830;8.748;2022-08-05T13:29:51;30.50;42.40
6627;DHT22;3349;49.830;8.748;2022-08-05T13:32:18;30.30;43.10
6627;DHT22;3349;49.830;8.748;2022-08-05T13:34:45;29.80;43.80
6627;DHT22;3349;49.830;8.748;2022-08-05T13:37:13;29.90;44.60
6627;DHT22;3349;49.830;8.748;2022-08-05T13:39:40;29.50;44.60
6627;DHT22;3349;49.830;8.748;2022-08-05T13:42:09;29.30;45.20
6627;DHT22;3349;49.830;8.748;2022-08-05T13:44:35;29.40;45.00
6627;DHT22;3349;49.830;8.748;2022-08-05T13:47:02;29.40;45.00
6627;DHT22;3349;49.830;8.748;2022-08-05T13:49:29;29.30;45.40
6627;DHT22;3349;49.830;8.748;2022-08-05T13:51:56;29.00;46.00
6627;DHT22;3349;49.830;8.748;2022-08-05T13:54:25;28.80;46.80
6627;DHT22;3349;49.830;8.748;2022-08-05T13:56:52;28.80;46.80
6627;DHT22;3349;49.830;8.748;2022-08-05T13:59:21;28.80;46.80
6627;DHT22;3349;49.830;8.748;2022-08-05T14:01:48;28.90;46.90
6627;DHT22;3349;49.830;8.748;2022-08-05T14:04:14;28.80;46.90
6627;DHT22;3349;49.830;8.748;2022-08-05T14:06:59;28.90;47.40
6627;DHT22;3349;49.830;8.748;2022-08-05T14:09:25;29.00;47.40
6627;DHT22;3349;49.830;8.748;2022-08-05T14:11:52;28.90;46.80
6627;DHT22;3349;49.830;8.748;2022-08-05T14:14:20;28.80;47.30
6627;DHT22;3349;49.830;8.748;2022-08-05T14:16:47;29.00;47.40
6627;DHT22;3349;49.830;8.748;2022-08-05T14:19:15;29.40;47.20
6627;DHT22;3349;49.830;8.748;2022-08-05T14:21:42;29.30;46.60
6627;DHT22;3349;49.830;8.748;2022-08-05T14:24:09;29.10;47.00
6627;DHT22;3349;49.830;8.748;2022-08-05T14:26:36;29.00;46.90
6627;DHT22;3349;49.830;8.748;2022-08-05T14:29:03;29.00;46.90
6627;DHT22;3349;49.830;8.748;2022-08-05T14:31:32;28.70;47.90
6627;DHT22;3349;49.830;8.748;2022-08-05T14:33:59;28.50;48.80
6627;DHT22;3349;49.830;8.748;2022-08-05T14:36:26;28.40;49.30
6627;DHT22;3349;49.830;8.748;2022-08-05T14:38:52;28.20;49.80
6627;DHT22;3349;49.830;8.748;2022-08-05T14:41:19;28.10;50.60
6627;DHT22;3349;49.830;8.748;2022-08-05T14:43:46;28.00;51.30
6627;DHT22;3349;49.830;8.748;2022-08-05T14:46:14;28.00;51.40
6627;DHT22;3349;49.830;8.748;2022-08-05T14:48:42;28.10;51.20
6627;DHT22;3349;49.830;8.748;2022-08-05T14:51:09;27.80;51.70
6627;DHT22;3349;49.830;8.748;2022-08-05T14:53:36;27.70;52.10
6627;DHT22;3349;49.830;8.748;2022-08-05T14:56:03;27.30;52.30
6627;DHT22;3349;49.830;8.748;2022-08-05T14:58:30;27.30;52.80
6627;DHT22;3349;49.830;8.748;2022-08-05T15:00:57;27.20;54.10
6627;DHT22;3349;49.830;8.748;2022-08-05T15:03:24;27.00;54.10
6627;DHT22;3349;49.830;8.748;2022-08-05T15:05:52;26.90;54.60
6627;DHT22;3349;49.830;8.748;2022-08-05T15:08:19;26.80;55.10
6627;DHT22;3349;49.830;8.748;2022-08-05T15:10:45;26.60;56.20
6627;DHT22;3349;49.830;8.748;2022-08-05T15:13:12;26.50;56.30
6627;DHT22;3349;49.830;8.748;2022-08-05T15:15:39;26.30;57.00
6627;DHT22;3349;49.830;8.748;2022-08-05T15:18:05;26.50;55.80
6627;DHT22;3349;49.830;8.748;2022-08-05T15:20:32;26.40;55.70
6627;DHT22;3349;49.830;8.748;2022-08-05T15:23:04;26.50;54.80
6627;DHT22;3349;49.830;8.748;2022-08-05T15:25:31;26.30;55.10
6627;DHT22;3349;49.830;8.748;2022-08-05T15:27:58;26.20;55.80
6627;DHT22;3349;49.830;8.748;2022-08-05T15:30:25;26.20;55.80
6627;DHT22;3349;49.830;8.748;2022-08-05T15:32:53;25.90;55.70
6627;DHT22;3349;49.830;8.748;2022-08-05T15:35:20;25.60;56.50
6627;DHT22;3349;49.830;8.748;2022-08-05T15:37:47;25.40;57.30
6627;DHT22;3349;49.830;8.748;2022-08-05T15:40:16;25.30;58.20
6627;DHT22;3349;49.830;8.748;2022-08-05T15:42:43;25.40;57.70
6627;DHT22;3349;49.830;8.748;2022-08-05T15:45:10;25.50;57.30
6627;DHT22;3349;49.830;8.748;2022-08-05T15:47:36;25.70;56.30
6627;DHT22;3349;49.830;8.748;2022-08-05T15:50:04;25.80;55.80
6627;DHT22;3349;49.830;8.748;2022-08-05T15:52:31;25.80;55.70
6627;DHT22;3349;49.830;8.748;2022-08-05T15:54:58;25.60;56.10
6627;DHT22;3349;49.830;8.748;2022-08-05T15:57:26;25.60;56.00
6627;DHT22;3349;49.830;8.748;2022-08-05T15:59:52;25.60;56.00
6627;DHT22;3349;49.830;8.748;2022-08-05T16:02:20;25.30;57.00
6627;DHT22;3349;49.830;8.748;2022-08-05T16:04:47;25.30;56.30
6627;DHT22;3349;49.830;8.748;2022-08-05T16:07:14;25.40;56.10
6627;DHT22;3349;49.830;8.748;2022-08-05T16:09:41;25.50;55.60
6627;DHT22;3349;49.830;8.748;2022-08-05T16:12:08;25.50;55.60
6627;DHT22;3349;49.830;8.748;2022-08-05T16:14:36;25.30;55.90
6627;DHT22;3349;49.830;8.748;2022-08-05T16:17:03;25.30;56.40
6627;DHT22;3349;49.830;8.748;2022-08-05T16:19:30;25.20;55.50